sensor_id;sensor_type;location;lat;lon;timestamp;P1;durP1;ratioP1;P2;durP2;ratioP2
2039;SDS011;1025;42.686;23.350;2023-03-21T00:01:35;8.63;;;7.80;;
2039;SDS011;1025;42.686;23.350;2023-03-21T00:04:01;8.07;;;7.47;;
2039;SDS011;1025;42.686;23.350;2023-03-21T00:06:28;13.07;;;7.20;;
2039;SDS011;1025;42.686;23.350;2023-03-21T00:08:56;7.83;;;7.03;;
2039;SDS011;1025;42.686;23.350;2023-03-21T00:11:23;11.27;;;9.60;;
2039;SDS011;1025;42.686;23.350;2023-03-21T00:13:49;10.50;;;7.60;;
2039;SDS011;1025;42.686;23.350;2023-03-21T00:16:17;10.07;;;7.77;;
2039;SDS011;1025;42.686;23.350;2023-03-21T00:18:44;13.20;;;7.70;;
2039;SDS011;1025;42.686;23.350;2023-03-21T00:21:13;8.77;;;7.97;;
2039;SDS011;1025;42.686;23.350;2023-03-21T00:23:40;14.00;;;8.73;;
2039;SDS011;1025;42.686;23.350;2023-03-21T00:26:09;15.93;;;9.37;;
2039;SDS011;1025;42.686;23.350;2023-03-21T00:28:35;17.60;;;10.30;;
2039;SDS011;1025;42.686;23.350;2023-03-21T00:31:02;14.47;;;11.70;;
2039;SDS011;1025;42.686;23.350;2023-03-21T00:33:28;17.97;;;13.90;;
2039;SDS011;1025;42.686;23.350;2023-03-21T00:35:55;16.67;;;13.00;;
2039;SDS011;1025;42.686;23.350;2023-03-21T00:38:22;17.43;;;14.13;;
2039;SDS011;1025;42.686;23.350;2023-03-21T00:40:49;18.33;;;14.90;;
2039;SDS011;1025;42.686;23.350;2023-03-21T00:43:17;16.57;;;14.10;;
2039;SDS011;1025;42.686;23.350;2023-03-21T00:45:47;18.77;;;16.87;;
2039;SDS011;1025;42.686;23.350;2023-03-21T00:48:14;20.93;;;16.20;;
2039;SDS011;1025;42.686;23.350;2023-03-21T00:50:41;20.73;;;15.03;;
2039;SDS011;1025;42.686;23.350;2023-03-21T00:53:09;17.53;;;15.27;;
2039;SDS011;1025;42.686;23.350;2023-03-21T00:55:36;25.00;;;16.40;;
2039;SDS011;1025;42.686;23.350;2023-03-21T00:58:03;18.33;;;15.80;;
2039;SDS011;1025;42.686;23.350;2023-03-21T01:00:31;29.23;;;17.40;;
2039;SDS011;1025;42.686;23.350;2023-03-21T01:03:01;28.53;;;16.20;;
2039;SDS011;1025;42.686;23.350;2023-03-21T01:05:30;18.30;;;15.20;;
2039;SDS011;1025;42.686;23.350;2023-03-21T01:08:15;19.03;;;15.57;;
2039;SDS011;1025;42.686;23.350;2023-03-21T01:10:43;23.40;;;14.40;;
2039;SDS011;1025;42.686;23.350;2023-03-21T01:13:10;23.17;;;16.50;;
2039;SDS011;1025;42.686;23.350;2023-03-21T01:15:43;20.30;;;16.40;;
2039;SDS011;1025;42.686;23.350;2023-03-21T01:18:09;17.57;;;15.10;;
2039;SDS011;1025;42.686;23.350;2023-03-21T01:20:36;25.07;;;17.20;;
2039;SDS011;1025;42.686;23.350;2023-03-21T01:23:03;29.20;;;16.47;;
2039;SDS011;1025;42.686;23.350;2023-03-21T01:25:30;24.83;;;15.67;;
2039;SDS011;1025;42.686;23.350;2023-03-21T01:27:56;17.80;;;15.17;;
2039;SDS011;1025;42.686;23.350;2023-03-21T01:30:23;23.40;;;15.27;;
2039;SDS011;1025;42.686;23.350;2023-03-21T01:32:51;21.17;;;14.83;;
2039;SDS011;1025;42.686;23.350;2023-03-21T01:35:17;19.50;;;14.67;;
2039;SDS011;1025;42.686;23.350;2023-03-21T01:37:44;18.80;;;15.07;;
2039;SDS011;1025;42.686;23.350;2023-03-21T01:40:13;23.20;;;15.73;;
2039;SDS011;1025;42.686;23.350;2023-03-21T01:42:41;20.07;;;14.70;;
2039;SDS011;1025;42.686;23.350;2023-03-21T01:47:50;28.33;;;16.33;;
2039;SDS011;1025;42.686;23.350;2023-03-21T01:50:17;24.03;;;14.80;;
2039;SDS011;1025;42.686;23.350;2023-03-21T01:52:46;16.53;;;14.73;;
2039;SDS011;1025;42.686;23.350;2023-03-21T01:55:14;17.23;;;14.60;;
2039;SDS011;1025;42.686;23.350;2023-03-21T01:57:41;18.80;;;13.50;;
2039;SDS011;1025;42.686;23.350;2023-03-21T02:00:10;17.37;;;15.57;;
2039;SDS011;1025;42.686;23.350;2023-03-21T02:02:37;17.97;;;14.00;;
2039;SDS011;1025;42.686;23.350;2023-03-21T02:05:22;17.13;;;14.53;;
2039;SDS011;1025;42.686;23.350;2023-03-21T02:07:49;18.33;;;14.57;;
2039;SDS011;1025;42.686;23.350;2023-03-21T02:10:17;13.03;;;11.83;;
2039;SDS011;1025;42.686;23.350;2023-03-21T02:12:44;18.40;;;14.53;;
2039;SDS011;1025;42.686;23.350;2023-03-21T02:15:10;22.83;;;14.30;;
2039;SDS011;1025;42.686;23.350;2023-03-21T02:17:38;20.00;;;14.57;;
2039;SDS011;1025;42.686;23.350;2023-03-21T02:20:26;15.70;;;14.10;;
2039;SDS011;1025;42.686;23.350;2023-03-21T02:23:15;18.80;;;13.53;;
2039;SDS011;1025;42.686;23.350;2023-03-21T02:25:51;15.77;;;13.80;;
2039;SDS011;1025;42.686;23.350;2023-03-21T02:28:23;16.00;;;13.33;;
2039;SDS011;1025;42.686;23.350;2023-03-21T02:36:29;14.83;;;13.30;;
2039;SDS011;1025;42.686;23.350;2023-03-21T02:39:03;16.47;;;14.07;;
2039;SDS011;1025;42.686;23.350;2023-03-21T02:41:35;20.50;;;14.23;;
2039;SDS011;1025;42.686;23.350;2023-03-21T02:44:06;16.60;;;13.13;;
2039;SDS011;1025;42.686;23.350;2023-03-21T02:46:36;19.23;;;14.00;;
2039;SDS011;1025;42.686;23.350;2023-03-21T02:49:06;19.23;;;13.03;;
2039;SDS011;1025;42.686;23.350;2023-03-21T02:51:34;19.93;;;12.70;;
2039;SDS011;1025;42.686;23.350;2023-03-21T02:54:04;18.20;;;13.30;;
2039;SDS011;1025;42.686;23.350;2023-03-21T02:56:32;14.13;;;12.73;;
2039;SDS011;1025;42.686;23.350;2023-03-21T02:58:58;16.27;;;12.50;;
2039;SDS011;1025;42.686;23.350;2023-03-21T03:01:25;16.53;;;13.80;;
2039;SDS011;1025;42.686;23.350;2023-03-21T03:03:53;15.47;;;13.50;;
2039;SDS011;1025;42.686;23.350;2023-03-21T03:06:21;15.50;;;13.07;;
2039;SDS011;1025;42.686;23.350;2023-03-21T03:08:54;21.30;;;13.10;;
2039;SDS011;1025;42.686;23.350;2023-03-21T03:11:27;14.97;;;12.07;;
2039;SDS011;1025;42.686;23.350;2023-03-21T03:14:01;19.30;;;13.47;;
2039;SDS011;1025;42.686;23.350;2023-03-21T03:16:30;13.30;;;12.00;;
2039;SDS011;1025;42.686;23.350;2023-03-21T03:19:01;14.33;;;12.83;;
2039;SDS011;1025;42.686;23.350;2023-03-21T03:21:31;20.60;;;16.10;;
2039;SDS011;1025;42.686;23.350;2023-03-21T03:24:00;27.63;;;14.43;;
2039;SDS011;1025;42.686;23.350;2023-03-21T03:26:29;16.60;;;12.67;;
2039;SDS011;1025;42.686;23.350;2023-03-21T03:28:59;17.23;;;12.83;;
2039;SDS011;1025;42.686;23.350;2023-03-21T03:31:28;23.20;;;14.47;;
2039;SDS011;1025;42.686;23.350;2023-03-21T03:33:57;15.30;;;13.70;;
2039;SDS011;1025;42.686;23.350;2023-03-21T03:36:26;14.73;;;13.10;;
2039;SDS011;1025;42.686;23.350;2023-03-21T03:38:53;23.57;;;13.87;;
2039;SDS011;1025;42.686;23.350;2023-03-21T03:41:21;16.90;;;12.27;;
2039;SDS011;1025;42.686;23.350;2023-03-21T03:43:52;13.13;;;11.60;;
2039;SDS011;1025;42.686;23.350;2023-03-21T03:46:22;16.00;;;13.37;;
2039;SDS011;1025;42.686;23.350;2023-03-21T03:48:51;20.80;;;12.97;;
2039;SDS011;1025;42.686;23.350;2023-03-21T03:51:20;19.93;;;14.27;;
2039;SDS011;1025;42.686;23.350;2023-03-21T03:53:50;14.40;;;12.37;;
2039;SDS011;1025;42.686;23.350;2023-03-21T03:56:18;20.90;;;12.40;;
2039;SDS011;1025;42.686;23.350;2023-03-21T03:58:45;22.50;;;14.33;;
2039;SDS011;1025;42.686;23.350;2023-03-21T04:01:13;13.70;;;12.30;;
2039;SDS011;1025;42.686;23.350;2023-03-21T04:03:40;22.97;;;12.57;;
2039;SDS011;1025;42.686;23.350;2023-03-21T04:06:07;15.07;;;11.97;;
2039;SDS011;1025;42.686;23.350;2023-03-21T04:08:35;32.73;;;14.30;;
2039;SDS011;1025;42.686;23.350;2023-03-21T04:11:02;14.50;;;13.00;;
2039;SDS011;1025;42.686;23.350;2023-03-21T04:13:29;32.73;;;14.03;;
2039;SDS011;1025;42.686;23.350;2023-03-21T04:15:55;26.10;;;14.00;;
2039;SDS011;1025;42.686;23.350;2023-03-21T04:18:23;15.83;;;13.27;;
2039;SDS011;1025;42.686;23.350;2023-03-21T04:20:50;20.30;;;12.97;;
2039;SDS011;1025;42.686;23.350;2023-03-21T04:23:17;19.13;;;12.50;;
2039;SDS011;1025;42.686;23.350;2023-03-21T04:25:48;19.23;;;14.07;;
2039;SDS011;1025;42.686;23.350;2023-03-21T04:28:16;31.83;;;15.10;;
2039;SDS011;1025;42.686;23.350;2023-03-21T04:30:43;33.03;;;15.93;;
2039;SDS011;1025;42.686;23.350;2023-03-21T04:33:10;20.70;;;14.40;;
2039;SDS011;1025;42.686;23.350;2023-03-21T04:35:38;18.70;;;13.40;;
2039;SDS011;1025;42.686;23.350;2023-03-21T04:38:06;22.30;;;13.70;;
2039;SDS011;1025;42.686;23.350;2023-03-21T04:40:33;16.83;;;13.00;;
2039;SDS011;1025;42.686;23.350;2023-03-21T04:42:59;24.63;;;15.40;;
2039;SDS011;1025;42.686;23.350;2023-03-21T04:45:26;26.27;;;15.87;;
2039;SDS011;1025;42.686;23.350;2023-03-21T04:47:53;32.80;;;15.17;;
2039;SDS011;1025;42.686;23.350;2023-03-21T04:50:20;18.87;;;15.93;;
2039;SDS011;1025;42.686;23.350;2023-03-21T04:52:48;20.70;;;13.87;;
2039;SDS011;1025;42.686;23.350;2023-03-21T04:55:15;28.17;;;15.70;;
2039;SDS011;1025;42.686;23.350;2023-03-21T04:57:45;26.37;;;14.07;;
2039;SDS011;1025;42.686;23.350;2023-03-21T05:00:12;33.40;;;16.03;;
2039;SDS011;1025;42.686;23.350;2023-03-21T05:02:39;30.47;;;15.53;;
2039;SDS011;1025;42.686;23.350;2023-03-21T05:05:06;21.60;;;13.23;;
2039;SDS011;1025;42.686;23.350;2023-03-21T05:07:35;31.20;;;16.67;;
2039;SDS011;1025;42.686;23.350;2023-03-21T05:10:04;25.00;;;16.10;;
2039;SDS011;1025;42.686;23.350;2023-03-21T05:12:30;24.00;;;15.60;;
2039;SDS011;1025;42.686;23.350;2023-03-21T05:14:57;26.20;;;16.93;;
2039;SDS011;1025;42.686;23.350;2023-03-21T05:17:23;25.00;;;16.00;;
2039;SDS011;1025;42.686;23.350;2023-03-21T05:19:52;26.40;;;16.70;;
2039;SDS011;1025;42.686;23.350;2023-03-21T05:22:20;34.43;;;17.27;;
2039;SDS011;1025;42.686;23.350;2023-03-21T05:24:48;28.57;;;16.40;;
2039;SDS011;1025;42.686;23.350;2023-03-21T05:27:17;23.70;;;16.30;;
2039;SDS011;1025;42.686;23.350;2023-03-21T05:29:58;24.47;;;15.13;;
2039;SDS011;1025;42.686;23.350;2023-03-21T05:32:25;22.93;;;13.47;;
2039;SDS011;1025;42.686;23.350;2023-03-21T05:34:51;21.30;;;13.87;;
2039;SDS011;1025;42.686;23.350;2023-03-21T05:37:18;26.07;;;14.90;;
2039;SDS011;1025;42.686;23.350;2023-03-21T05:39:44;37.03;;;17.07;;
2039;SDS011;1025;42.686;23.350;2023-03-21T05:42:11;34.60;;;16.20;;
2039;SDS011;1025;42.686;23.350;2023-03-21T05:44:39;23.03;;;15.70;;
2039;SDS011;1025;42.686;23.350;2023-03-21T05:47:05;34.03;;;16.13;;
2039;SDS011;1025;42.686;23.350;2023-03-21T05:49:32;30.37;;;14.40;;
2039;SDS011;1025;42.686;23.350;2023-03-21T05:51:59;36.77;;;16.87;;
2039;SDS011;1025;42.686;23.350;2023-03-21T05:54:25;20.03;;;12.77;;
2039;SDS011;1025;42.686;23.350;2023-03-21T05:56:52;20.10;;;14.37;;
2039;SDS011;1025;42.686;23.350;2023-03-21T05:59:19;15.30;;;12.23;;
2039;SDS011;1025;42.686;23.350;2023-03-21T06:01:46;23.37;;;13.90;;
2039;SDS011;1025;42.686;23.350;2023-03-21T06:04:13;21.87;;;14.70;;
2039;SDS011;1025;42.686;23.350;2023-03-21T06:06:40;15.27;;;11.53;;
2039;SDS011;1025;42.686;23.350;2023-03-21T06:09:06;20.47;;;12.30;;
2039;SDS011;1025;42.686;23.350;2023-03-21T06:11:33;13.77;;;11.23;;
2039;SDS011;1025;42.686;23.350;2023-03-21T06:14:00;21.70;;;13.47;;
2039;SDS011;1025;42.686;23.350;2023-03-21T06:16:27;21.70;;;12.53;;
2039;SDS011;1025;42.686;23.350;2023-03-21T06:18:55;17.50;;;11.07;;
2039;SDS011;1025;42.686;23.350;2023-03-21T06:21:21;25.23;;;12.60;;
2039;SDS011;1025;42.686;23.350;2023-03-21T06:23:48;14.40;;;11.80;;
2039;SDS011;1025;42.686;23.350;2023-03-21T06:26:15;22.93;;;11.03;;
2039;SDS011;1025;42.686;23.350;2023-03-21T06:28:43;19.77;;;11.53;;
2039;SDS011;1025;42.686;23.350;2023-03-21T06:31:10;18.90;;;11.90;;
2039;SDS011;1025;42.686;23.350;2023-03-21T06:33:37;26.20;;;11.20;;
2039;SDS011;1025;42.686;23.350;2023-03-21T06:36:06;26.97;;;11.67;;
2039;SDS011;1025;42.686;23.350;2023-03-21T06:38:33;20.67;;;12.00;;
2039;SDS011;1025;42.686;23.350;2023-03-21T06:41:02;18.87;;;11.80;;
2039;SDS011;1025;42.686;23.350;2023-03-21T06:43:29;14.90;;;11.17;;
2039;SDS011;1025;42.686;23.350;2023-03-21T06:45:56;20.90;;;11.80;;
2039;SDS011;1025;42.686;23.350;2023-03-21T06:48:22;19.37;;;11.60;;
2039;SDS011;1025;42.686;23.350;2023-03-21T06:50:50;21.93;;;12.43;;
2039;SDS011;1025;42.686;23.350;2023-03-21T06:53:18;23.60;;;14.50;;
2039;SDS011;1025;42.686;23.350;2023-03-21T06:55:47;26.93;;;14.87;;
2039;SDS011;1025;42.686;23.350;2023-03-21T06:58:14;27.90;;;16.63;;
2039;SDS011;1025;42.686;23.350;2023-03-21T07:00:40;23.43;;;16.70;;
2039;SDS011;1025;42.686;23.350;2023-03-21T07:03:07;29.60;;;18.83;;
2039;SDS011;1025;42.686;23.350;2023-03-21T07:05:34;36.83;;;24.20;;
2039;SDS011;1025;42.686;23.350;2023-03-21T07:08:00;30.43;;;23.30;;
2039;SDS011;1025;42.686;23.350;2023-03-21T07:10:28;33.67;;;24.67;;
2039;SDS011;1025;42.686;23.350;2023-03-21T07:12:55;35.37;;;24.47;;
2039;SDS011;1025;42.686;23.350;2023-03-21T07:15:23;30.33;;;24.53;;
2039;SDS011;1025;42.686;23.350;2023-03-21T07:17:50;28.80;;;22.93;;
2039;SDS011;1025;42.686;23.350;2023-03-21T07:20:17;35.20;;;24.67;;
2039;SDS011;1025;42.686;23.350;2023-03-21T07:22:44;36.70;;;23.53;;
2039;SDS011;1025;42.686;23.350;2023-03-21T07:25:10;30.93;;;23.20;;
2039;SDS011;1025;42.686;23.350;2023-03-21T07:27:38;38.33;;;23.80;;
2039;SDS011;1025;42.686;23.350;2023-03-21T07:30:06;28.73;;;20.20;;
2039;SDS011;1025;42.686;23.350;2023-03-21T07:32:34;27.67;;;20.70;;
2039;SDS011;1025;42.686;23.350;2023-03-21T07:35:02;30.40;;;21.17;;
2039;SDS011;1025;42.686;23.350;2023-03-21T07:37:28;31.70;;;21.10;;
2039;SDS011;1025;42.686;23.350;2023-03-21T07:39:55;29.27;;;20.93;;
2039;SDS011;1025;42.686;23.350;2023-03-21T07:42:22;29.33;;;20.23;;
2039;SDS011;1025;42.686;23.350;2023-03-21T07:44:49;26.80;;;18.23;;
2039;SDS011;1025;42.686;23.350;2023-03-21T07:47:19;26.57;;;19.20;;
2039;SDS011;1025;42.686;23.350;2023-03-21T07:49:46;30.17;;;18.53;;
2039;SDS011;1025;42.686;23.350;2023-03-21T07:52:12;31.03;;;20.17;;
2039;SDS011;1025;42.686;23.350;2023-03-21T07:54:39;24.00;;;17.00;;
2039;SDS011;1025;42.686;23.350;2023-03-21T07:57:05;23.53;;;15.30;;
2039;SDS011;1025;42.686;23.350;2023-03-21T07:59:32;24.03;;;15.20;;
2039;SDS011;1025;42.686;23.350;2023-03-21T08:02:00;30.30;;;15.60;;
2039;SDS011;1025;42.686;23.350;2023-03-21T08:04:26;23.13;;;15.00;;
2039;SDS011;1025;42.686;23.350;2023-03-21T08:06:53;25.97;;;15.07;;
2039;SDS011;1025;42.686;23.350;2023-03-21T08:09:21;24.60;;;14.43;;
2039;SDS011;1025;42.686;23.350;2023-03-21T08:11:48;22.13;;;13.27;;
2039;SDS011;1025;42.686;23.350;2023-03-21T08:14:14;26.73;;;14.73;;
2039;SDS011;1025;42.686;23.350;2023-03-21T08:16:41;24.93;;;15.33;;
2039;SDS011;1025;42.686;23.350;2023-03-21T08:19:09;19.47;;;12.50;;
2039;SDS011;1025;42.686;23.350;2023-03-21T08:21:36;18.80;;;13.43;;
2039;SDS011;1025;42.686;23.350;2023-03-21T08:24:03;29.90;;;14.57;;
2039;SDS011;1025;42.686;23.350;2023-03-21T08:26:31;27.37;;;15.27;;
2039;SDS011;1025;42.686;23.350;2023-03-21T08:28:58;20.03;;;13.40;;
2039;SDS011;1025;42.686;23.350;2023-03-21T08:31:25;18.40;;;12.73;;
2039;SDS011;1025;42.686;23.350;2023-03-21T08:33:52;23.33;;;12.73;;
2039;SDS011;1025;42.686;23.350;2023-03-21T08:36:21;20.03;;;13.70;;
2039;SDS011;1025;42.686;23.350;2023-03-21T08:38:48;18.43;;;12.63;;
2039;SDS011;1025;42.686;23.350;2023-03-21T08:41:18;25.50;;;15.20;;
2039;SDS011;1025;42.686;23.350;2023-03-21T08:43:46;20.40;;;13.50;;
2039;SDS011;1025;42.686;23.350;2023-03-21T08:46:12;18.87;;;12.93;;
2039;SDS011;1025;42.686;23.350;2023-03-21T08:48:39;26.33;;;14.23;;
2039;SDS011;1025;42.686;23.350;2023-03-21T08:51:06;15.83;;;12.53;;
2039;SDS011;1025;42.686;23.350;2023-03-21T08:53:34;23.07;;;14.07;;
2039;SDS011;1025;42.686;23.350;2023-03-21T08:56:01;17.17;;;10.70;;
2039;SDS011;1025;42.686;23.350;2023-03-21T08:58:27;12.87;;;11.57;;
2039;SDS011;1025;42.686;23.350;2023-03-21T09:00:54;15.10;;;12.00;;
2039;SDS011;1025;42.686;23.350;2023-03-21T09:03:20;15.47;;;13.77;;
2039;SDS011;1025;42.686;23.350;2023-03-21T09:05:47;28.83;;;13.87;;
2039;SDS011;1025;42.686;23.350;2023-03-21T09:08:14;21.70;;;12.97;;
2039;SDS011;1025;42.686;23.350;2023-03-21T09:10:42;18.30;;;12.10;;
2039;SDS011;1025;42.686;23.350;2023-03-21T09:13:08;18.77;;;14.70;;
2039;SDS011;1025;42.686;23.350;2023-03-21T09:15:35;16.57;;;12.10;;
2039;SDS011;1025;42.686;23.350;2023-03-21T09:18:02;19.07;;;11.63;;
2039;SDS011;1025;42.686;23.350;2023-03-21T09:20:37;14.70;;;13.10;;
2039;SDS011;1025;42.686;23.350;2023-03-21T09:23:05;15.90;;;11.80;;
2039;SDS011;1025;42.686;23.350;2023-03-21T09:25:31;20.17;;;13.57;;
2039;SDS011;1025;42.686;23.350;2023-03-21T09:27:59;18.17;;;11.67;;
2039;SDS011;1025;42.686;23.350;2023-03-21T09:30:26;13.47;;;10.87;;
2039;SDS011;1025;42.686;23.350;2023-03-21T09:32:53;17.60;;;11.43;;
2039;SDS011;1025;42.686;23.350;2023-03-21T09:35:20;29.30;;;15.67;;
2039;SDS011;1025;42.686;23.350;2023-03-21T09:37:47;13.90;;;10.97;;
2039;SDS011;1025;42.686;23.350;2023-03-21T09:40:15;19.70;;;11.03;;
2039;SDS011;1025;42.686;23.350;2023-03-21T09:42:45;14.20;;;11.70;;
2039;SDS011;1025;42.686;23.350;2023-03-21T09:45:19;16.07;;;11.87;;
2039;SDS011;1025;42.686;23.350;2023-03-21T09:47:48;18.43;;;12.73;;
2039;SDS011;1025;42.686;23.350;2023-03-21T09:50:18;17.27;;;11.43;;
2039;SDS011;1025;42.686;23.350;2023-03-21T09:52:46;14.97;;;12.87;;
2039;SDS011;1025;42.686;23.350;2023-03-21T09:55:16;13.30;;;11.57;;
2039;SDS011;1025;42.686;23.350;2023-03-21T09:57:44;19.63;;;13.37;;
2039;SDS011;1025;42.686;23.350;2023-03-21T10:00:12;17.40;;;11.43;;
2039;SDS011;1025;42.686;23.350;2023-03-21T10:02:45;22.13;;;12.13;;
2039;SDS011;1025;42.686;23.350;2023-03-21T10:05:16;21.43;;;14.13;;
2039;SDS011;1025;42.686;23.350;2023-03-21T10:07:45;17.27;;;12.10;;
2039;SDS011;1025;42.686;23.350;2023-03-21T10:10:13;17.40;;;11.20;;
2039;SDS011;1025;42.686;23.350;2023-03-21T10:12:42;24.23;;;13.30;;
2039;SDS011;1025;42.686;23.350;2023-03-21T10:15:10;22.27;;;14.10;;
2039;SDS011;1025;42.686;23.350;2023-03-21T10:17:40;17.57;;;12.10;;
2039;SDS011;1025;42.686;23.350;2023-03-21T10:20:13;22.20;;;14.40;;
2039;SDS011;1025;42.686;23.350;2023-03-21T10:22:40;14.87;;;12.60;;
2039;SDS011;1025;42.686;23.350;2023-03-21T10:25:09;22.20;;;14.10;;
2039;SDS011;1025;42.686;23.350;2023-03-21T10:27:38;14.17;;;12.70;;
2039;SDS011;1025;42.686;23.350;2023-03-21T10:30:06;23.43;;;13.90;;
2039;SDS011;1025;42.686;23.350;2023-03-21T10:32:35;17.57;;;15.27;;
2039;SDS011;1025;42.686;23.350;2023-03-21T10:35:01;28.00;;;14.50;;
2039;SDS011;1025;42.686;23.350;2023-03-21T10:37:30;25.30;;;14.97;;
2039;SDS011;1025;42.686;23.350;2023-03-21T10:39:57;30.00;;;18.10;;
2039;SDS011;1025;42.686;23.350;2023-03-21T10:42:25;17.77;;;14.20;;
2039;SDS011;1025;42.686;23.350;2023-03-21T10:44:52;22.03;;;13.70;;
2039;SDS011;1025;42.686;23.350;2023-03-21T10:47:19;24.03;;;14.20;;
2039;SDS011;1025;42.686;23.350;2023-03-21T10:49:46;16.23;;;12.40;;
2039;SDS011;1025;42.686;23.350;2023-03-21T10:52:14;16.37;;;13.67;;
2039;SDS011;1025;42.686;23.350;2023-03-21T10:54:44;14.27;;;12.23;;
2039;SDS011;1025;42.686;23.350;2023-03-21T10:57:12;21.70;;;11.83;;
2039;SDS011;1025;42.686;23.350;2023-03-21T10:59:39;18.73;;;11.43;;
2039;SDS011;1025;42.686;23.350;2023-03-21T11:02:11;13.17;;;10.60;;
2039;SDS011;1025;42.686;23.350;2023-03-21T11:04:41;15.20;;;11.20;;
2039;SDS011;1025;42.686;23.350;2023-03-21T11:07:10;12.93;;;11.60;;
2039;SDS011;1025;42.686;23.350;2023-03-21T11:09:43;15.03;;;9.70;;
2039;SDS011;1025;42.686;23.350;2023-03-21T11:12:12;12.40;;;10.30;;
2039;SDS011;1025;42.686;23.350;2023-03-21T11:14:39;13.50;;;7.73;;
2039;SDS011;1025;42.686;23.350;2023-03-21T11:17:14;17.73;;;7.80;;
2039;SDS011;1025;42.686;23.350;2023-03-21T11:19:46;8.60;;;7.43;;
2039;SDS011;1025;42.686;23.350;2023-03-21T11:22:13;13.10;;;8.27;;
2039;SDS011;1025;42.686;23.350;2023-03-21T11:24:40;10.77;;;7.90;;
2039;SDS011;1025;42.686;23.350;2023-03-21T11:27:07;10.97;;;6.70;;
2039;SDS011;1025;42.686;23.350;2023-03-21T11:29:35;11.07;;;7.80;;
2039;SDS011;1025;42.686;23.350;2023-03-21T11:32:08;8.30;;;6.63;;
2039;SDS011;1025;42.686;23.350;2023-03-21T11:34:39;12.00;;;8.00;;
2039;SDS011;1025;42.686;23.350;2023-03-21T11:37:15;9.93;;;8.33;;
2039;SDS011;1025;42.686;23.350;2023-03-21T11:39:43;7.17;;;6.50;;
2039;SDS011;1025;42.686;23.350;2023-03-21T11:42:26;10.07;;;6.57;;
2039;SDS011;1025;42.686;23.350;2023-03-21T11:44:58;9.80;;;7.53;;
2039;SDS011;1025;42.686;23.350;2023-03-21T11:47:26;6.33;;;5.73;;
2039;SDS011;1025;42.686;23.350;2023-03-21T11:49:53;8.50;;;5.03;;
2039;SDS011;1025;42.686;23.350;2023-03-21T11:52:22;7.80;;;6.77;;
2039;SDS011;1025;42.686;23.350;2023-03-21T11:54:58;6.20;;;5.60;;
2039;SDS011;1025;42.686;23.350;2023-03-21T11:57:28;9.57;;;6.30;;
2039;SDS011;1025;42.686;23.350;2023-03-21T12:00:02;8.20;;;4.93;;
2039;SDS011;1025;42.686;23.350;2023-03-21T12:02:38;5.93;;;4.60;;
2039;SDS011;1025;42.686;23.350;2023-03-21T12:05:08;6.97;;;4.53;;
2039;SDS011;1025;42.686;23.350;2023-03-21T12:07:41;10.43;;;5.57;;
2039;SDS011;1025;42.686;23.350;2023-03-21T12:10:16;7.43;;;5.10;;
2039;SDS011;1025;42.686;23.350;2023-03-21T12:12:49;6.53;;;5.90;;
2039;SDS011;1025;42.686;23.350;2023-03-21T12:15:23;9.10;;;5.77;;
2039;SDS011;1025;42.686;23.350;2023-03-21T12:17:54;7.70;;;5.00;;
2039;SDS011;1025;42.686;23.350;2023-03-21T12:20:28;4.37;;;3.97;;
2039;SDS011;1025;42.686;23.350;2023-03-21T12:23:00;6.70;;;5.40;;
2039;SDS011;1025;42.686;23.350;2023-03-21T12:25:29;5.30;;;4.80;;
2039;SDS011;1025;42.686;23.350;2023-03-21T12:27:59;5.60;;;5.00;;
2039;SDS011;1025;42.686;23.350;2023-03-21T12:30:35;10.57;;;7.00;;
2039;SDS011;1025;42.686;23.350;2023-03-21T12:35:49;6.60;;;5.33;;
2039;SDS011;1025;42.686;23.350;2023-03-21T12:38:19;6.40;;;5.00;;
2039;SDS011;1025;42.686;23.350;2023-03-21T12:40:54;6.43;;;4.80;;
2039;SDS011;1025;42.686;23.350;2023-03-21T12:43:29;4.80;;;4.40;;
2039;SDS011;1025;42.686;23.350;2023-03-21T12:46:01;4.50;;;4.10;;
2039;SDS011;1025;42.686;23.350;2023-03-21T12:48:31;6.83;;;5.20;;
2039;SDS011;1025;42.686;23.350;2023-03-21T12:50:59;5.73;;;5.23;;
2039;SDS011;1025;42.686;23.350;2023-03-21T12:53:29;5.40;;;4.90;;
2039;SDS011;1025;42.686;23.350;2023-03-21T12:56:00;4.93;;;4.53;;
2039;SDS011;1025;42.686;23.350;2023-03-21T12:58:28;5.43;;;4.93;;
2039;SDS011;1025;42.686;23.350;2023-03-21T13:00:57;7.37;;;4.20;;
2039;SDS011;1025;42.686;23.350;2023-03-21T13:03:28;6.13;;;4.30;;
2039;SDS011;1025;42.686;23.350;2023-03-21T13:05:56;4.43;;;3.77;;
2039;SDS011;1025;42.686;23.350;2023-03-21T13:08:24;4.90;;;4.50;;
2039;SDS011;1025;42.686;23.350;2023-03-21T13:10:53;8.93;;;4.80;;
2039;SDS011;1025;42.686;23.350;2023-03-21T13:13:21;5.37;;;4.00;;
2039;SDS011;1025;42.686;23.350;2023-03-21T13:15:55;5.10;;;4.53;;
2039;SDS011;1025;42.686;23.350;2023-03-21T13:18:26;6.00;;;4.90;;
2039;SDS011;1025;42.686;23.350;2023-03-21T13:20:59;16.93;;;5.50;;
2039;SDS011;1025;42.686;23.350;2023-03-21T13:23:32;5.40;;;4.57;;
2039;SDS011;1025;42.686;23.350;2023-03-21T13:25:59;7.30;;;4.80;;
2039;SDS011;1025;42.686;23.350;2023-03-21T13:28:26;4.77;;;4.37;;
2039;SDS011;1025;42.686;23.350;2023-03-21T13:30:53;5.40;;;4.10;;
2039;SDS011;1025;42.686;23.350;2023-03-21T13:33:39;7.40;;;4.70;;
2039;SDS011;1025;42.686;23.350;2023-03-21T13:36:12;14.17;;;5.57;;
2039;SDS011;1025;42.686;23.350;2023-03-21T13:38:39;7.93;;;5.10;;
2039;SDS011;1025;42.686;23.350;2023-03-21T13:41:08;6.43;;;4.57;;
2039;SDS011;1025;42.686;23.350;2023-03-21T13:43:39;7.13;;;4.50;;
2039;SDS011;1025;42.686;23.350;2023-03-21T13:46:06;6.30;;;4.70;;
2039;SDS011;1025;42.686;23.350;2023-03-21T13:48:40;5.27;;;4.87;;
2039;SDS011;1025;42.686;23.350;2023-03-21T13:51:07;5.17;;;4.70;;
2039;SDS011;1025;42.686;23.350;2023-03-21T13:53:36;5.00;;;3.73;;
2039;SDS011;1025;42.686;23.350;2023-03-21T13:56:19;11.40;;;5.40;;
2039;SDS011;1025;42.686;23.350;2023-03-21T13:58:50;6.93;;;5.43;;
2039;SDS011;1025;42.686;23.350;2023-03-21T14:01:23;12.10;;;5.93;;
2039;SDS011;1025;42.686;23.350;2023-03-21T14:03:55;8.10;;;5.17;;
2039;SDS011;1025;42.686;23.350;2023-03-21T14:06:23;7.00;;;5.23;;
2039;SDS011;1025;42.686;23.350;2023-03-21T14:08:57;6.80;;;6.13;;
2039;SDS011;1025;42.686;23.350;2023-03-21T14:11:23;5.97;;;5.37;;
2039;SDS011;1025;42.686;23.350;2023-03-21T14:13:51;5.23;;;4.73;;
2039;SDS011;1025;42.686;23.350;2023-03-21T14:16:18;5.83;;;4.97;;
2039;SDS011;1025;42.686;23.350;2023-03-21T14:18:47;11.67;;;5.60;;
2039;SDS011;1025;42.686;23.350;2023-03-21T14:21:16;8.53;;;4.80;;
2039;SDS011;1025;42.686;23.350;2023-03-21T14:23:44;5.20;;;4.77;;
2039;SDS011;1025;42.686;23.350;2023-03-21T14:26:12;5.30;;;4.80;;
2039;SDS011;1025;42.686;23.350;2023-03-21T14:28:45;6.70;;;6.00;;
2039;SDS011;1025;42.686;23.350;2023-03-21T14:31:13;5.40;;;4.10;;
2039;SDS011;1025;42.686;23.350;2023-03-21T14:33:41;5.13;;;4.63;;
2039;SDS011;1025;42.686;23.350;2023-03-21T14:36:11;5.60;;;4.57;;
2039;SDS011;1025;42.686;23.350;2023-03-21T14:38:39;6.47;;;5.87;;
2039;SDS011;1025;42.686;23.350;2023-03-21T14:41:19;15.53;;;7.20;;
2039;SDS011;1025;42.686;23.350;2023-03-21T14:43:59;7.37;;;6.30;;
2039;SDS011;1025;42.686;23.350;2023-03-21T14:46:26;6.17;;;5.20;;
2039;SDS011;1025;42.686;23.350;2023-03-21T14:48:52;6.10;;;5.60;;
2039;SDS011;1025;42.686;23.350;2023-03-21T14:51:19;7.00;;;5.40;;
2039;SDS011;1025;42.686;23.350;2023-03-21T14:53:46;9.87;;;5.93;;
2039;SDS011;1025;42.686;23.350;2023-03-21T14:56:15;6.47;;;5.87;;
2039;SDS011;1025;42.686;23.350;2023-03-21T14:58:44;9.17;;;6.30;;
2039;SDS011;1025;42.686;23.350;2023-03-21T15:01:12;4.90;;;4.50;;